sensor_id;sensor_type;location;lat;lon;timestamp;P1;durP1;ratioP1;P2;durP2;ratioP2
12348;SDS011;5974;42.710;27.258;2023-07-13T00:02:24;9.10;;;8.30;;
12348;SDS011;5974;42.710;27.258;2023-07-13T00:04:51;9.33;;;8.30;;
12348;SDS011;5974;42.710;27.258;2023-07-13T00:07:18;9.33;;;8.53;;
12348;SDS011;5974;42.710;27.258;2023-07-13T00:09:45;9.20;;;8.40;;
12348;SDS011;5974;42.710;27.258;2023-07-13T00:12:22;9.27;;;8.37;;
12348;SDS011;5974;42.710;27.258;2023-07-13T00:14:50;9.37;;;8.47;;
12348;SDS011;5974;42.710;27.258;2023-07-13T00:17:17;9.50;;;8.43;;
12348;SDS011;5974;42.710;27.258;2023-07-13T00:19:45;10.40;;;9.23;;
12348;SDS011;5974;42.710;27.258;2023-07-13T00:22:13;10.40;;;9.40;;
12348;SDS011;5974;42.710;27.258;2023-07-13T00:24:40;9.33;;;8.50;;
12348;SDS011;5974;42.710;27.258;2023-07-13T00:27:07;9.73;;;8.83;;
12348;SDS011;5974;42.710;27.258;2023-07-13T00:29:34;9.27;;;8.57;;
12348;SDS011;5974;42.710;27.258;2023-07-13T00:32:02;10.47;;;9.13;;
12348;SDS011;5974;42.710;27.258;2023-07-13T00:34:29;9.27;;;8.37;;
12348;SDS011;5974;42.710;27.258;2023-07-13T00:36:58;8.93;;;8.13;;
12348;SDS011;5974;42.710;27.258;2023-07-13T00:39:25;9.47;;;8.57;;
12348;SDS011;5974;42.710;27.258;2023-07-13T00:41:52;10.00;;;9.10;;
12348;SDS011;5974;42.710;27.258;2023-07-13T00:44:19;9.93;;;9.00;;
12348;SDS011;5974;42.710;27.258;2023-07-13T00:46:48;9.30;;;8.50;;
12348;SDS011;5974;42.710;27.258;2023-07-13T00:49:16;10.00;;;9.10;;
12348;SDS011;5974;42.710;27.258;2023-07-13T00:51:47;10.30;;;9.20;;
12348;SDS011;5974;42.710;27.258;2023-07-13T00:54:17;10.10;;;8.97;;
12348;SDS011;5974;42.710;27.258;2023-07-13T00:56:51;9.40;;;8.60;;
12348;SDS011;5974;42.710;27.258;2023-07-13T00:59:19;10.30;;;9.23;;
12348;SDS011;5974;42.710;27.258;2023-07-13T01:01:48;10.37;;;8.43;;
12348;SDS011;5974;42.710;27.258;2023-07-13T01:04:15;9.20;;;8.40;;
12348;SDS011;5974;42.710;27.258;2023-07-13T01:06:43;9.60;;;8.70;;
12348;SDS011;5974;42.710;27.258;2023-07-13T01:09:10;9.30;;;8.37;;
12348;SDS011;5974;42.710;27.258;2023-07-13T01:11:39;8.87;;;8.17;;
12348;SDS011;5974;42.710;27.258;2023-07-13T01:14:07;9.30;;;8.53;;
12348;SDS011;5974;42.710;27.258;2023-07-13T01:16:34;9.70;;;8.77;;
12348;SDS011;5974;42.710;27.258;2023-07-13T01:19:03;10.57;;;8.47;;
12348;SDS011;5974;42.710;27.258;2023-07-13T01:21:40;9.30;;;8.50;;
12348;SDS011;5974;42.710;27.258;2023-07-13T01:24:08;9.87;;;8.83;;
12348;SDS011;5974;42.710;27.258;2023-07-13T01:26:35;9.37;;;8.47;;
12348;SDS011;5974;42.710;27.258;2023-07-13T01:29:02;9.77;;;8.87;;
12348;SDS011;5974;42.710;27.258;2023-07-13T01:31:29;9.27;;;8.47;;
12348;SDS011;5974;42.710;27.258;2023-07-13T01:33:55;9.33;;;8.50;;
12348;SDS011;5974;42.710;27.258;2023-07-13T01:36:23;9.03;;;8.33;;
12348;SDS011;5974;42.710;27.258;2023-07-13T01:38:51;9.90;;;8.93;;
12348;SDS011;5974;42.710;27.258;2023-07-13T01:41:18;9.10;;;8.40;;
12348;SDS011;5974;42.710;27.258;2023-07-13T01:43:45;12.13;;;8.67;;
12348;SDS011;5974;42.710;27.258;2023-07-13T01:46:12;9.50;;;8.57;;
12348;SDS011;5974;42.710;27.258;2023-07-13T01:48:39;10.23;;;9.23;;
12348;SDS011;5974;42.710;27.258;2023-07-13T01:51:06;10.30;;;9.30;;
12348;SDS011;5974;42.710;27.258;2023-07-13T01:53:33;13.63;;;9.13;;
12348;SDS011;5974;42.710;27.258;2023-07-13T01:56:01;10.00;;;9.20;;
12348;SDS011;5974;42.710;27.258;2023-07-13T01:58:28;10.30;;;9.40;;
12348;SDS011;5974;42.710;27.258;2023-07-13T02:00:54;9.63;;;8.83;;
12348;SDS011;5974;42.710;27.258;2023-07-13T02:03:22;9.27;;;8.47;;
12348;SDS011;5974;42.710;27.258;2023-07-13T02:05:48;11.27;;;9.33;;
12348;SDS011;5974;42.710;27.258;2023-07-13T02:08:15;9.60;;;8.90;;
12348;SDS011;5974;42.710;27.258;2023-07-13T02:10:42;10.53;;;9.50;;
12348;SDS011;5974;42.710;27.258;2023-07-13T02:13:10;10.53;;;9.50;;
12348;SDS011;5974;42.710;27.258;2023-07-13T02:15:38;10.50;;;9.50;;
12348;SDS011;5974;42.710;27.258;2023-07-13T02:18:06;10.53;;;9.70;;
12348;SDS011;5974;42.710;27.258;2023-07-13T02:20:33;10.03;;;9.00;;
12348;SDS011;5974;42.710;27.258;2023-07-13T02:23:00;11.00;;;9.67;;
12348;SDS011;5974;42.710;27.258;2023-07-13T02:25:27;10.27;;;9.27;;
12348;SDS011;5974;42.710;27.258;2023-07-13T02:27:53;10.83;;;9.90;;
12348;SDS011;5974;42.710;27.258;2023-07-13T02:30:22;9.83;;;8.80;;
12348;SDS011;5974;42.710;27.258;2023-07-13T02:32:50;10.07;;;9.27;;
12348;SDS011;5974;42.710;27.258;2023-07-13T02:35:16;9.83;;;9.03;;
12348;SDS011;5974;42.710;27.258;2023-07-13T02:37:43;9.47;;;8.57;;
12348;SDS011;5974;42.710;27.258;2023-07-13T02:40:10;12.23;;;9.63;;
12348;SDS011;5974;42.710;27.258;2023-07-13T02:42:37;9.60;;;8.73;;
12348;SDS011;5974;42.710;27.258;2023-07-13T02:45:04;9.80;;;9.00;;
12348;SDS011;5974;42.710;27.258;2023-07-13T02:47:33;10.27;;;9.23;;
12348;SDS011;5974;42.710;27.258;2023-07-13T02:50:00;10.33;;;9.40;;
12348;SDS011;5974;42.710;27.258;2023-07-13T02:52:27;11.33;;;9.20;;
12348;SDS011;5974;42.710;27.258;2023-07-13T02:54:54;10.03;;;9.00;;
12348;SDS011;5974;42.710;27.258;2023-07-13T02:57:21;9.87;;;8.97;;
12348;SDS011;5974;42.710;27.258;2023-07-13T02:59:48;11.73;;;9.23;;
12348;SDS011;5974;42.710;27.258;2023-07-13T03:02:15;10.10;;;9.20;;
12348;SDS011;5974;42.710;27.258;2023-07-13T03:04:44;10.33;;;9.33;;
12348;SDS011;5974;42.710;27.258;2023-07-13T03:07:11;10.20;;;9.17;;
12348;SDS011;5974;42.710;27.258;2023-07-13T03:09:39;9.80;;;8.90;;
12348;SDS011;5974;42.710;27.258;2023-07-13T03:12:06;9.77;;;8.83;;
12348;SDS011;5974;42.710;27.258;2023-07-13T03:14:34;9.97;;;9.00;;
12348;SDS011;5974;42.710;27.258;2023-07-13T03:17:01;12.33;;;9.90;;
12348;SDS011;5974;42.710;27.258;2023-07-13T03:19:27;9.93;;;9.00;;
12348;SDS011;5974;42.710;27.258;2023-07-13T03:21:56;10.07;;;9.10;;
12348;SDS011;5974;42.710;27.258;2023-07-13T03:24:23;10.43;;;9.43;;
12348;SDS011;5974;42.710;27.258;2023-07-13T03:26:51;10.33;;;9.43;;
12348;SDS011;5974;42.710;27.258;2023-07-13T03:29:18;13.13;;;9.37;;
12348;SDS011;5974;42.710;27.258;2023-07-13T03:31:44;9.97;;;9.07;;
12348;SDS011;5974;42.710;27.258;2023-07-13T03:34:11;9.97;;;9.10;;
12348;SDS011;5974;42.710;27.258;2023-07-13T03:36:38;10.63;;;9.57;;
12348;SDS011;5974;42.710;27.258;2023-07-13T03:39:06;11.23;;;8.67;;
12348;SDS011;5974;42.710;27.258;2023-07-13T03:41:35;10.23;;;9.23;;
12348;SDS011;5974;42.710;27.258;2023-07-13T03:44:02;9.40;;;8.60;;
12348;SDS011;5974;42.710;27.258;2023-07-13T03:46:29;10.50;;;8.90;;
12348;SDS011;5974;42.710;27.258;2023-07-13T03:48:56;10.53;;;8.27;;
12348;SDS011;5974;42.710;27.258;2023-07-13T03:51:24;9.17;;;8.27;;
12348;SDS011;5974;42.710;27.258;2023-07-13T03:53:51;9.10;;;8.27;;
12348;SDS011;5974;42.710;27.258;2023-07-13T03:56:19;9.83;;;8.53;;
12348;SDS011;5974;42.710;27.258;2023-07-13T03:58:46;9.40;;;8.47;;
12348;SDS011;5974;42.710;27.258;2023-07-13T04:01:15;9.43;;;8.43;;
12348;SDS011;5974;42.710;27.258;2023-07-13T04:03:44;9.80;;;8.80;;
12348;SDS011;5974;42.710;27.258;2023-07-13T04:06:14;9.77;;;8.77;;
12348;SDS011;5974;42.710;27.258;2023-07-13T04:08:46;9.57;;;8.43;;
12348;SDS011;5974;42.710;27.258;2023-07-13T04:11:14;8.93;;;8.07;;
12348;SDS011;5974;42.710;27.258;2023-07-13T04:13:43;9.13;;;8.23;;
12348;SDS011;5974;42.710;27.258;2023-07-13T04:16:10;8.73;;;7.93;;
12348;SDS011;5974;42.710;27.258;2023-07-13T04:18:37;9.50;;;8.13;;
12348;SDS011;5974;42.710;27.258;2023-07-13T04:21:04;12.47;;;7.63;;
12348;SDS011;5974;42.710;27.258;2023-07-13T04:23:30;10.87;;;8.17;;
12348;SDS011;5974;42.710;27.258;2023-07-13T04:25:57;12.80;;;7.70;;
12348;SDS011;5974;42.710;27.258;2023-07-13T04:28:25;9.18;;;8.20;;
12348;SDS011;5974;42.710;27.258;2023-07-13T04:30:54;8.98;;;8.18;;
12348;SDS011;5974;42.710;27.258;2023-07-13T04:33:21;10.85;;;8.40;;
12348;SDS011;5974;42.710;27.258;2023-07-13T04:35:48;10.85;;;7.57;;
12348;SDS011;5974;42.710;27.258;2023-07-13T04:38:21;13.45;;;8.32;;
12348;SDS011;5974;42.710;27.258;2023-07-13T04:40:50;9.77;;;8.07;;
12348;SDS011;5974;42.710;27.258;2023-07-13T04:43:17;11.13;;;8.38;;
12348;SDS011;5974;42.710;27.258;2023-07-13T04:45:44;10.68;;;8.18;;
12348;SDS011;5974;42.710;27.258;2023-07-13T04:48:12;15.90;;;8.43;;
12348;SDS011;5974;42.710;27.258;2023-07-13T04:50:39;9.82;;;8.55;;
12348;SDS011;5974;42.710;27.258;2023-07-13T04:53:06;9.88;;;7.82;;
12348;SDS011;5974;42.710;27.258;2023-07-13T04:55:33;10.95;;;7.60;;
12348;SDS011;5974;42.710;27.258;2023-07-13T04:58:00;13.23;;;8.32;;
12348;SDS011;5974;42.710;27.258;2023-07-13T05:00:28;9.35;;;7.05;;
12348;SDS011;5974;42.710;27.258;2023-07-13T05:02:55;11.45;;;7.60;;
12348;SDS011;5974;42.710;27.258;2023-07-13T05:05:25;8.75;;;7.07;;
12348;SDS011;5974;42.710;27.258;2023-07-13T05:07:53;9.43;;;7.63;;
12348;SDS011;5974;42.710;27.258;2023-07-13T05:10:20;11.20;;;7.70;;
12348;SDS011;5974;42.710;27.258;2023-07-13T05:12:47;9.45;;;7.28;;
12348;SDS011;5974;42.710;27.258;2023-07-13T05:15:14;11.07;;;7.60;;
12348;SDS011;5974;42.710;27.258;2023-07-13T05:17:45;9.25;;;7.45;;
12348;SDS011;5974;42.710;27.258;2023-07-13T05:20:13;11.10;;;7.38;;
12348;SDS011;5974;42.710;27.258;2023-07-13T05:22:41;9.57;;;7.47;;
12348;SDS011;5974;42.710;27.258;2023-07-13T05:25:08;8.73;;;7.35;;
12348;SDS011;5974;42.710;27.258;2023-07-13T05:27:35;8.05;;;7.25;;
12348;SDS011;5974;42.710;27.258;2023-07-13T05:30:03;10.88;;;7.40;;
12348;SDS011;5974;42.710;27.258;2023-07-13T05:32:31;8.32;;;7.53;;
12348;SDS011;5974;42.710;27.258;2023-07-13T05:34:57;8.50;;;7.75;;
12348;SDS011;5974;42.710;27.258;2023-07-13T05:37:24;8.02;;;7.22;;
12348;SDS011;5974;42.710;27.258;2023-07-13T05:39:52;7.75;;;7.05;;
12348;SDS011;5974;42.710;27.258;2023-07-13T05:42:19;11.52;;;7.55;;
12348;SDS011;5974;42.710;27.258;2023-07-13T05:44:46;7.65;;;6.80;;
12348;SDS011;5974;42.710;27.258;2023-07-13T05:47:13;10.13;;;7.85;;
12348;SDS011;5974;42.710;27.258;2023-07-13T05:49:40;10.80;;;6.85;;
12348;SDS011;5974;42.710;27.258;2023-07-13T05:52:07;11.63;;;7.53;;
12348;SDS011;5974;42.710;27.258;2023-07-13T05:54:34;11.50;;;7.15;;
12348;SDS011;5974;42.710;27.258;2023-07-13T05:57:03;11.38;;;7.85;;
12348;SDS011;5974;42.710;27.258;2023-07-13T05:59:30;11.70;;;7.65;;
12348;SDS011;5974;42.710;27.258;2023-07-13T06:01:57;8.35;;;7.50;;
12348;SDS011;5974;42.710;27.258;2023-07-13T06:04:23;13.43;;;7.25;;
12348;SDS011;5974;42.710;27.258;2023-07-13T06:06:50;9.25;;;7.75;;
12348;SDS011;5974;42.710;27.258;2023-07-13T06:09:17;10.43;;;7.70;;
12348;SDS011;5974;42.710;27.258;2023-07-13T06:11:44;12.85;;;7.90;;
12348;SDS011;5974;42.710;27.258;2023-07-13T06:14:12;8.30;;;7.53;;
12348;SDS011;5974;42.710;27.258;2023-07-13T06:16:39;9.40;;;8.38;;
12348;SDS011;5974;42.710;27.258;2023-07-13T06:19:07;9.38;;;8.52;;
12348;SDS011;5974;42.710;27.258;2023-07-13T06:21:34;10.68;;;8.63;;
12348;SDS011;5974;42.710;27.258;2023-07-13T06:24:01;9.90;;;8.13;;
12348;SDS011;5974;42.710;27.258;2023-07-13T06:26:28;12.10;;;8.23;;
12348;SDS011;5974;42.710;27.258;2023-07-13T06:28:55;8.98;;;8.10;;
12348;SDS011;5974;42.710;27.258;2023-07-13T06:31:23;9.90;;;7.90;;
12348;SDS011;5974;42.710;27.258;2023-07-13T06:33:50;8.65;;;7.93;;
12348;SDS011;5974;42.710;27.258;2023-07-13T06:36:17;9.13;;;8.23;;
12348;SDS011;5974;42.710;27.258;2023-07-13T06:38:44;11.70;;;8.50;;
12348;SDS011;5974;42.710;27.258;2023-07-13T06:41:11;9.30;;;8.18;;
12348;SDS011;5974;42.710;27.258;2023-07-13T06:43:37;9.88;;;8.15;;
12348;SDS011;5974;42.710;27.258;2023-07-13T06:46:04;9.15;;;8.25;;
12348;SDS011;5974;42.710;27.258;2023-07-13T06:48:33;9.80;;;8.80;;
12348;SDS011;5974;42.710;27.258;2023-07-13T06:51:01;9.00;;;8.30;;
12348;SDS011;5974;42.710;27.258;2023-07-13T06:53:29;10.95;;;8.23;;
12348;SDS011;5974;42.710;27.258;2023-07-13T06:55:56;9.65;;;8.50;;
12348;SDS011;5974;42.710;27.258;2023-07-13T06:58:23;12.43;;;8.43;;
12348;SDS011;5974;42.710;27.258;2023-07-13T07:00:50;10.48;;;8.95;;
12348;SDS011;5974;42.710;27.258;2023-07-13T07:03:18;10.00;;;8.68;;
12348;SDS011;5974;42.710;27.258;2023-07-13T07:05:46;13.85;;;8.63;;
12348;SDS011;5974;42.710;27.258;2023-07-13T07:08:13;9.05;;;8.02;;
12348;SDS011;5974;42.710;27.258;2023-07-13T07:10:40;9.77;;;8.80;;
12348;SDS011;5974;42.710;27.258;2023-07-13T07:13:08;9.55;;;8.55;;
12348;SDS011;5974;42.710;27.258;2023-07-13T07:15:35;10.30;;;8.73;;
12348;SDS011;5974;42.710;27.258;2023-07-13T07:18:02;11.38;;;8.32;;
12348;SDS011;5974;42.710;27.258;2023-07-13T07:20:29;9.90;;;8.48;;
12348;SDS011;5974;42.710;27.258;2023-07-13T07:22:59;10.77;;;9.10;;
12348;SDS011;5974;42.710;27.258;2023-07-13T07:25:26;12.30;;;8.43;;
12348;SDS011;5974;42.710;27.258;2023-07-13T07:27:56;9.65;;;8.57;;
12348;SDS011;5974;42.710;27.258;2023-07-13T07:30:23;10.30;;;8.85;;
12348;SDS011;5974;42.710;27.258;2023-07-13T07:32:50;10.10;;;9.02;;
12348;SDS011;5974;42.710;27.258;2023-07-13T07:35:17;9.70;;;8.80;;
12348;SDS011;5974;42.710;27.258;2023-07-13T07:37:44;9.95;;;9.02;;
12348;SDS011;5974;42.710;27.258;2023-07-13T07:40:12;9.90;;;8.88;;
12348;SDS011;5974;42.710;27.258;2023-07-13T07:42:39;12.07;;;8.70;;
12348;SDS011;5974;42.710;27.258;2023-07-13T07:45:06;9.75;;;8.68;;
12348;SDS011;5974;42.710;27.258;2023-07-13T07:47:36;12.40;;;9.40;;
12348;SDS011;5974;42.710;27.258;2023-07-13T07:50:03;9.77;;;8.80;;
12348;SDS011;5974;42.710;27.258;2023-07-13T07:52:30;14.18;;;10.18;;
12348;SDS011;5974;42.710;27.258;2023-07-13T07:54:57;10.23;;;9.20;;
12348;SDS011;5974;42.710;27.258;2023-07-13T07:57:26;9.75;;;8.85;;
12348;SDS011;5974;42.710;27.258;2023-07-13T07:59:52;11.70;;;8.93;;
12348;SDS011;5974;42.710;27.258;2023-07-13T08:02:19;9.88;;;8.98;;
12348;SDS011;5974;42.710;27.258;2023-07-13T08:04:46;9.35;;;8.13;;
12348;SDS011;5974;42.710;27.258;2023-07-13T08:07:13;11.77;;;8.80;;
12348;SDS011;5974;42.710;27.258;2023-07-13T08:09:40;10.07;;;8.65;;
12348;SDS011;5974;42.710;27.258;2023-07-13T08:12:07;11.23;;;9.27;;
12348;SDS011;5974;42.710;27.258;2023-07-13T08:14:36;11.10;;;8.48;;
12348;SDS011;5974;42.710;27.258;2023-07-13T08:17:03;12.63;;;8.07;;
12348;SDS011;5974;42.710;27.258;2023-07-13T08:19:30;10.75;;;9.13;;
12348;SDS011;5974;42.710;27.258;2023-07-13T08:21:57;9.52;;;8.38;;
12348;SDS011;5974;42.710;27.258;2023-07-13T08:24:24;12.82;;;8.57;;
12348;SDS011;5974;42.710;27.258;2023-07-13T08:26:51;10.48;;;8.48;;
12348;SDS011;5974;42.710;27.258;2023-07-13T08:29:18;10.65;;;8.35;;
12348;SDS011;5974;42.710;27.258;2023-07-13T08:31:46;10.18;;;8.35;;
12348;SDS011;5974;42.710;27.258;2023-07-13T08:34:13;10.35;;;8.07;;
12348;SDS011;5974;42.710;27.258;2023-07-13T08:36:41;9.88;;;8.38;;
12348;SDS011;5974;42.710;27.258;2023-07-13T08:39:08;13.00;;;8.98;;
12348;SDS011;5974;42.710;27.258;2023-07-13T08:41:35;10.50;;;9.10;;
12348;SDS011;5974;42.710;27.258;2023-07-13T08:44:02;9.73;;;8.75;;
12348;SDS011;5974;42.710;27.258;2023-07-13T08:46:34;10.88;;;8.80;;
12348;SDS011;5974;42.710;27.258;2023-07-13T08:49:09;9.10;;;8.20;;
12348;SDS011;5974;42.710;27.258;2023-07-13T08:51:41;9.88;;;7.75;;
12348;SDS011;5974;42.710;27.258;2023-07-13T08:54:14;10.32;;;7.28;;
12348;SDS011;5974;42.710;27.258;2023-07-13T08:56:47;10.88;;;7.30;;
12348;SDS011;5974;42.710;27.258;2023-07-13T08:59:19;10.75;;;7.50;;
12348;SDS011;5974;42.710;27.258;2023-07-13T09:02:00;9.63;;;7.30;;
12348;SDS011;5974;42.710;27.258;2023-07-13T09:04:49;9.98;;;7.65;;
12348;SDS011;5974;42.710;27.258;2023-07-13T09:07:23;12.05;;;7.28;;
12348;SDS011;5974;42.710;27.258;2023-07-13T09:10:00;9.73;;;6.88;;
12348;SDS011;5974;42.710;27.258;2023-07-13T09:12:35;9.95;;;6.68;;
12348;SDS011;5974;42.710;27.258;2023-07-13T09:15:17;18.33;;;7.00;;
12348;SDS011;5974;42.710;27.258;2023-07-13T09:17:52;10.73;;;6.03;;
12348;SDS011;5974;42.710;27.258;2023-07-13T09:20:25;10.27;;;6.18;;
12348;SDS011;5974;42.710;27.258;2023-07-13T09:22:55;18.25;;;6.75;;
12348;SDS011;5974;42.710;27.258;2023-07-13T09:25:26;10.35;;;6.57;;
12348;SDS011;5974;42.710;27.258;2023-07-13T09:27:57;9.82;;;7.28;;
12348;SDS011;5974;42.710;27.258;2023-07-13T09:30:30;12.63;;;7.40;;
12348;SDS011;5974;42.710;27.258;2023-07-13T09:33:01;12.43;;;7.05;;
12348;SDS011;5974;42.710;27.258;2023-07-13T09:35:29;9.25;;;6.75;;
12348;SDS011;5974;42.710;27.258;2023-07-13T09:37:57;11.52;;;7.43;;
12348;SDS011;5974;42.710;27.258;2023-07-13T09:40:28;14.80;;;6.40;;
12348;SDS011;5974;42.710;27.258;2023-07-13T09:43:10;16.13;;;6.72;;
12348;SDS011;5974;42.710;27.258;2023-07-13T09:45:41;12.57;;;6.40;;
12348;SDS011;5974;42.710;27.258;2023-07-13T09:48:12;13.98;;;6.47;;
12348;SDS011;5974;42.710;27.258;2023-07-13T09:50:42;12.07;;;5.90;;
12348;SDS011;5974;42.710;27.258;2023-07-13T09:53:13;10.50;;;5.78;;
12348;SDS011;5974;42.710;27.258;2023-07-13T09:55:42;5.88;;;5.03;;
12348;SDS011;5974;42.710;27.258;2023-07-13T09:58:11;11.95;;;5.75;;
12348;SDS011;5974;42.710;27.258;2023-07-13T10:00:41;9.25;;;5.68;;
12348;SDS011;5974;42.710;27.258;2023-07-13T10:03:16;9.35;;;5.53;;
12348;SDS011;5974;42.710;27.258;2023-07-13T10:05:48;6.72;;;5.72;;
12348;SDS011;5974;42.710;27.258;2023-07-13T10:08:18;14.93;;;5.53;;
12348;SDS011;5974;42.710;27.258;2023-07-13T10:10:51;12.27;;;5.10;;
12348;SDS011;5974;42.710;27.258;2023-07-13T10:13:31;11.93;;;5.43;;
12348;SDS011;5974;42.710;27.258;2023-07-13T10:16:01;9.60;;;5.72;;
12348;SDS011;5974;42.710;27.258;2023-07-13T10:18:31;10.73;;;5.85;;
12348;SDS011;5974;42.710;27.258;2023-07-13T10:21:11;9.68;;;5.65;;
12348;SDS011;5974;42.710;27.258;2023-07-13T10:23:40;9.88;;;5.60;;
12348;SDS011;5974;42.710;27.258;2023-07-13T10:26:09;10.02;;;5.57;;
12348;SDS011;5974;42.710;27.258;2023-07-13T10:28:41;12.10;;;6.18;;
12348;SDS011;5974;42.710;27.258;2023-07-13T10:31:10;11.02;;;5.88;;
12348;SDS011;5974;42.710;27.258;2023-07-13T10:33:40;7.22;;;5.63;;
12348;SDS011;5974;42.710;27.258;2023-07-13T10:36:12;9.82;;;5.80;;
12348;SDS011;5974;42.710;27.258;2023-07-13T10:38:44;9.77;;;5.55;;
12348;SDS011;5974;42.710;27.258;2023-07-13T10:41:14;7.15;;;5.90;;
12348;SDS011;5974;42.710;27.258;2023-07-13T10:43:44;8.68;;;6.05;;
12348;SDS011;5974;42.710;27.258;2023-07-13T10:46:15;9.60;;;5.90;;
12348;SDS011;5974;42.710;27.258;2023-07-13T10:48:46;6.88;;;6.22;;
12348;SDS011;5974;42.710;27.258;2023-07-13T10:51:17;11.98;;;6.43;;
12348;SDS011;5974;42.710;27.258;2023-07-13T10:53:47;8.45;;;6.72;;
12348;SDS011;5974;42.710;27.258;2023-07-13T10:56:34;9.20;;;6.18;;
12348;SDS011;5974;42.710;27.258;2023-07-13T10:59:02;9.23;;;6.07;;
12348;SDS011;5974;42.710;27.258;2023-07-13T11:01:40;8.77;;;5.78;;
12348;SDS011;5974;42.710;27.258;2023-07-13T11:04:16;12.85;;;6.50;;
12348;SDS011;5974;42.710;27.258;2023-07-13T11:06:47;8.77;;;5.93;;
12348;SDS011;5974;42.710;27.258;2023-07-13T11:09:30;12.27;;;5.95;;
12348;SDS011;5974;42.710;27.258;2023-07-13T11:12:01;8.40;;;5.97;;
12348;SDS011;5974;42.710;27.258;2023-07-13T11:14:34;9.07;;;6.32;;
12348;SDS011;5974;42.710;27.258;2023-07-13T11:20:09;6.93;;;6.05;;
12348;SDS011;5974;42.710;27.258;2023-07-13T11:22:47;7.72;;;5.93;;
12348;SDS011;5974;42.710;27.258;2023-07-13T11:25:25;12.90;;;6.43;;
12348;SDS011;5974;42.710;27.258;2023-07-13T11:28:04;8.55;;;6.05;;
12348;SDS011;5974;42.710;27.258;2023-07-13T11:30:47;11.13;;;6.38;;
12348;SDS011;5974;42.710;27.258;2023-07-13T11:33:27;12.75;;;6.50;;
12348;SDS011;5974;42.710;27.258;2023-07-13T11:35:59;8.15;;;5.95;;
12348;SDS011;5974;42.710;27.258;2023-07-13T11:38:32;12.02;;;6.30;;
12348;SDS011;5974;42.710;27.258;2023-07-13T11:41:02;8.43;;;5.85;;
12348;SDS011;5974;42.710;27.258;2023-07-13T11:43:32;9.07;;;6.32;;
12348;SDS011;5974;42.710;27.258;2023-07-13T11:46:12;11.23;;;6.28;;
12348;SDS011;5974;42.710;27.258;2023-07-13T11:48:40;13.95;;;6.05;;
12348;SDS011;5974;42.710;27.258;2023-07-13T11:51:07;11.02;;;6.30;;
12348;SDS011;5974;42.710;27.258;2023-07-13T11:53:47;12.38;;;6.88;;
12348;SDS011;5974;42.710;27.258;2023-07-13T11:56:16;9.18;;;6.07;;
12348;SDS011;5974;42.710;27.258;2023-07-13T11:58:43;12.75;;;6.40;;
12348;SDS011;5974;42.710;27.258;2023-07-13T12:01:15;10.10;;;6.28;;
12348;SDS011;5974;42.710;27.258;2023-07-13T12:03:45;12.02;;;6.18;;
12348;SDS011;5974;42.710;27.258;2023-07-13T12:06:23;9.07;;;6.10;;
12348;SDS011;5974;42.710;27.258;2023-07-13T12:08:56;10.10;;;6.38;;
12348;SDS011;5974;42.710;27.258;2023-07-13T12:11:25;10.27;;;6.45;;
12348;SDS011;5974;42.710;27.258;2023-07-13T12:13:54;11.00;;;6.18;;
12348;SDS011;5974;42.710;27.258;2023-07-13T12:16:29;10.73;;;6.22;;
12348;SDS011;5974;42.710;27.258;2023-07-13T12:18:59;11.05;;;6.20;;
12348;SDS011;5974;42.710;27.258;2023-07-13T12:21:31;11.80;;;6.13;;
12348;SDS011;5974;42.710;27.258;2023-07-13T12:24:03;10.65;;;6.20;;
12348;SDS011;5974;42.710;27.258;2023-07-13T12:26:34;11.88;;;6.22;;
12348;SDS011;5974;42.710;27.258;2023-07-13T12:29:05;12.98;;;6.38;;
12348;SDS011;5974;42.710;27.258;2023-07-13T12:31:40;10.23;;;6.30;;
12348;SDS011;5974;42.710;27.258;2023-07-13T12:34:12;11.50;;;6.68;;
12348;SDS011;5974;42.710;27.258;2023-07-13T12:36:45;12.25;;;6.68;;
12348;SDS011;5974;42.710;27.258;2023-07-13T12:39:17;12.32;;;5.70;;
12348;SDS011;5974;42.710;27.258;2023-07-13T12:41:46;7.97;;;5.50;;
12348;SDS011;5974;42.710;27.258;2023-07-13T12:44:15;15.65;;;6.00;;
12348;SDS011;5974;42.710;27.258;2023-07-13T12:46:52;8.35;;;6.22;;
12348;SDS011;5974;42.710;27.258;2023-07-13T12:49:22;11.27;;;6.82;;
12348;SDS011;5974;42.710;27.258;2023-07-13T12:51:55;10.75;;;7.32;;
12348;SDS011;5974;42.710;27.258;2023-07-13T12:54:26;9.55;;;7.00;;
12348;SDS011;5974;42.710;27.258;2023-07-13T12:56:55;13.93;;;6.47;;
12348;SDS011;5974;42.710;27.258;2023-07-13T12:59:25;10.45;;;6.88;;
12348;SDS011;5974;42.710;27.258;2023-07-13T13:01:58;11.02;;;7.50;;
12348;SDS011;5974;42.710;27.258;2023-07-13T13:04:26;17.48;;;6.95;;
12348;SDS011;5974;42.710;27.258;2023-07-13T13:07:02;13.73;;;6.57;;
12348;SDS011;5974;42.710;27.258;2023-07-13T13:09:32;16.80;;;7.00;;
12348;SDS011;5974;42.710;27.258;2023-07-13T13:11:59;11.00;;;7.10;;
12348;SDS011;5974;42.710;27.258;2023-07-13T13:14:28;9.10;;;6.28;;
12348;SDS011;5974;42.710;27.258;2023-07-13T13:16:55;8.38;;;6.22;;
12348;SDS011;5974;42.710;27.258;2023-07-13T13:19:23;11.98;;;7.07;;
12348;SDS011;5974;42.710;27.258;2023-07-13T13:21:52;10.25;;;6.63;;
12348;SDS011;5974;42.710;27.258;2023-07-13T13:24:22;11.38;;;7.07;;
12348;SDS011;5974;42.710;27.258;2023-07-13T13:26:52;7.22;;;6.50;;
12348;SDS011;5974;42.710;27.258;2023-07-13T13:29:22;10.90;;;7.10;;
12348;SDS011;5974;42.710;27.258;2023-07-13T13:31:50;10.50;;;6.70;;
12348;SDS011;5974;42.710;27.258;2023-07-13T13:34:18;9.68;;;6.93;;
12348;SDS011;5974;42.710;27.258;2023-07-13T13:36:48;11.10;;;7.22;;
12348;SDS011;5974;42.710;27.258;2023-07-13T13:39:20;10.30;;;7.45;;
12348;SDS011;5974;42.710;27.258;2023-07-13T13:41:49;8.52;;;7.57;;
12348;SDS011;5974;42.710;27.258;2023-07-13T13:44:18;11.50;;;7.28;;
12348;SDS011;5974;42.710;27.258;2023-07-13T13:46:47;10.15;;;6.90;;
12348;SDS011;5974;42.710;27.258;2023-07-13T13:49:17;18.00;;;7.85;;
12348;SDS011;5974;42.710;27.258;2023-07-13T13:51:48;8.10;;;7.30;;
12348;SDS011;5974;42.710;27.258;2023-07-13T13:54:15;9.23;;;6.95;;
12348;SDS011;5974;42.710;27.258;2023-07-13T13:56:44;10.77;;;7.30;;
12348;SDS011;5974;42.710;27.258;2023-07-13T13:59:12;12.10;;;7.35;;
12348;SDS011;5974;42.710;27.258;2023-07-13T14:01:41;11.02;;;7.25;;
12348;SDS011;5974;42.710;27.258;2023-07-13T14:04:10;10.40;;;7.13;;
12348;SDS011;5974;42.710;27.258;2023-07-13T14:06:41;11.48;;;6.90;;
12348;SDS011;5974;42.710;27.258;2023-07-13T14:09:08;8.95;;;6.93;;
12348;SDS011;5974;42.710;27.258;2023-07-13T14:11:36;12.25;;;7.63;;
12348;SDS011;5974;42.710;27.258;2023-07-13T14:14:04;13.27;;;7.55;;
12348;SDS011;5974;42.710;27.258;2023-07-13T14:16:31;8.45;;;6.75;;
12348;SDS011;5974;42.710;27.258;2023-07-13T14:19:01;8.70;;;7.20;;
12348;SDS011;5974;42.710;27.258;2023-07-13T14:21:28;10.27;;;7.00;;
12348;SDS011;5974;42.710;27.258;2023-07-13T14:23:55;13.02;;;7.38;;
12348;SDS011;5974;42.710;27.258;2023-07-13T14:26:24;10.75;;;7.35;;
12348;SDS011;5974;42.710;27.258;2023-07-13T14:28:53;9.73;;;7.28;;
12348;SDS011;5974;42.710;27.258;2023-07-13T14:31:23;10.43;;;7.25;;
12348;SDS011;5974;42.710;27.258;2023-07-13T14:33:54;10.10;;;7.07;;
12348;SDS011;5974;42.710;27.258;2023-07-13T14:36:23;8.25;;;7.03;;
12348;SDS011;5974;42.710;27.258;2023-07-13T14:38:54;10.20;;;7.05;;
12348;SDS011;5974;42.710;27.258;2023-07-13T14:41:21;13.05;;;7.07;;
12348;SDS011;5974;42.710;27.258;2023-07-13T14:43:48;10.32;;;7.13;;
12348;SDS011;5974;42.710;27.258;2023-07-13T14:46:21;10.40;;;7.40;;
12348;SDS011;5974;42.710;27.258;2023-07-13T14:48:54;10.15;;;6.72;;
12348;SDS011;5974;42.710;27.258;2023-07-13T14:51:29;12.02;;;7.40;;
12348;SDS011;5974;42.710;27.258;2023-07-13T14:53:58;9.10;;;6.95;;
12348;SDS011;5974;42.710;27.258;2023-07-13T14:56:27;10.48;;;7.30;;